createdAt,value
2023-05-02T00:00:36.998Z,100434.69
2023-05-02T00:01:41.137Z,100432.78
2023-05-02T00:02:43.867Z,100426.00
2023-05-02T00:03:46.533Z,100424.94
2023-05-02T00:04:49.118Z,100425.16
2023-05-02T00:05:51.298Z,100424.28
2023-05-02T00:06:53.598Z,100427.56
2023-05-02T00:07:56.466Z,100430.66
2023-05-02T00:08:59.095Z,100435.78
2023-05-02T00:10:03.221Z,100435.50
2023-05-02T00:11:06.001Z,100441.84
2023-05-02T00:12:08.218Z,100445.50
2023-05-02T00:13:11.094Z,100437.06
2023-05-02T00:14:13.995Z,100439.22
2023-05-02T00:15:16.334Z,100447.09
2023-05-02T00:16:18.687Z,100445.88
2023-05-02T00:17:21.404Z,100447.72
2023-05-02T00:18:24.459Z,100445.31
2023-05-02T00:19:26.678Z,100451.34
2023-05-02T00:20:29.088Z,100444.16
2023-05-02T00:21:31.583Z,100450.72
2023-05-02T00:22:33.789Z,100454.56
2023-05-02T00:23:36.250Z,100448.28
2023-05-02T00:24:38.516Z,100444.31
2023-05-02T00:25:46.953Z,100439.78
2023-05-02T00:26:50.040Z,100448.34
2023-05-02T00:27:52.964Z,100443.84
2023-05-02T00:28:55.389Z,100445.84
2023-05-02T00:29:59.737Z,100440.13
2023-05-02T00:31:02.420Z,100445.97
2023-05-02T00:32:06.204Z,100448.59
2023-05-02T00:33:08.452Z,100446.75
2023-05-02T00:34:10.858Z,100450.69
2023-05-02T00:35:13.400Z,100455.97
2023-05-02T00:36:16.680Z,100450.81
2023-05-02T00:37:20.041Z,100453.00
2023-05-02T00:38:22.249Z,100456.28
2023-05-02T00:39:25.270Z,100458.59
2023-05-02T00:40:27.674Z,100458.28
2023-05-02T00:41:30.076Z,100460.38
2023-05-02T00:42:36.393Z,100456.13
2023-05-02T00:43:42.102Z,100462.31
2023-05-02T00:44:44.491Z,100457.25
2023-05-02T00:45:47.297Z,100455.72
2023-05-02T00:46:50.469Z,100448.28
2023-05-02T00:47:52.775Z,100451.06
2023-05-02T00:48:55.351Z,100457.50
2023-05-02T00:49:57.981Z,100450.28
2023-05-02T00:51:04.963Z,100452.69
2023-05-02T00:52:08.886Z,100451.66
2023-05-02T00:53:11.289Z,100450.97
2023-05-02T00:54:14.282Z,100459.22
2023-05-02T00:55:17.241Z,100460.97
2023-05-02T00:56:19.586Z,100459.81
2023-05-02T00:57:22.838Z,100456.53
2023-05-02T00:58:25.845Z,100459.28
2023-05-02T00:59:28.705Z,100458.22
2023-05-02T01:00:54.543Z,100461.84
2023-05-02T01:02:12.121Z,100453.00
2023-05-02T01:03:42.483Z,100459.84
2023-05-02T01:04:54.454Z,100466.38
2023-05-02T01:06:16.877Z,100459.00
2023-05-02T01:07:28.389Z,100456.91
2023-05-02T01:08:55.858Z,100457.69
2023-05-02T01:10:10.129Z,100462.31
2023-05-02T01:11:18.210Z,100463.84
2023-05-02T01:12:42.973Z,100462.13
2023-05-02T01:13:47.174Z,100469.16
2023-05-02T01:14:55.083Z,100469.34
2023-05-02T01:15:59.752Z,100466.66
2023-05-02T01:17:05.332Z,100465.06
2023-05-02T01:18:10.540Z,100461.59
2023-05-02T01:19:31.522Z,100468.91
2023-05-02T01:20:38.682Z,100465.41
2023-05-02T01:21:42.531Z,100461.28
2023-05-02T01:22:45.326Z,100466.66
2023-05-02T01:23:59.574Z,100464.84
2023-05-02T01:25:09.194Z,100465.00
2023-05-02T01:26:23.600Z,100462.72
2023-05-02T01:27:43.492Z,100464.13
2023-05-02T01:29:02.917Z,100460.66
2023-05-02T01:30:07.882Z,100463.06
2023-05-02T01:31:12.316Z,100468.81
2023-05-02T01:32:16.046Z,100466.31
2023-05-02T01:33:19.201Z,100466.31
2023-05-02T01:34:23.105Z,100466.63
2023-05-02T01:35:27.552Z,100474.81
2023-05-02T01:36:32.855Z,100474.81
2023-05-02T01:37:38.186Z,100472.22
2023-05-02T01:38:43.699Z,100481.34
2023-05-02T01:39:47.345Z,100476.28
2023-05-02T01:40:51.496Z,100476.75
2023-05-02T01:41:57.574Z,100475.63
2023-05-02T01:43:01.081Z,100477.19
2023-05-02T01:44:04.811Z,100481.19
2023-05-02T01:45:09.011Z,100486.41
2023-05-02T01:46:13.883Z,100481.19
2023-05-02T01:47:17.506Z,100482.78
2023-05-02T01:48:22.676Z,100482.16
2023-05-02T01:49:26.895Z,100482.41
2023-05-02T01:50:29.357Z,100479.38
2023-05-02T01:51:35.595Z,100487.09
2023-05-02T01:52:38.658Z,100474.19
2023-05-02T01:53:41.285Z,100480.56
2023-05-02T01:54:44.066Z,100483.44
2023-05-02T01:55:47.422Z,100478.31
2023-05-02T01:56:50.188Z,100475.13
2023-05-02T01:57:54.967Z,100475.72
2023-05-02T01:58:57.655Z,100470.44
2023-05-02T02:00:02.029Z,100483.91
2023-05-02T02:01:16.348Z,100479.38
2023-05-02T02:02:19.811Z,100473.13
2023-05-02T02:03:23.126Z,100481.19
2023-05-02T02:04:29.751Z,100477.47
2023-05-02T02:05:34.458Z,100480.06
2023-05-02T02:06:39.120Z,100475.31
2023-05-02T02:07:42.815Z,100481.69
2023-05-02T02:08:45.006Z,100477.66
2023-05-02T02:09:47.691Z,100481.41
2023-05-02T02:10:54.070Z,100474.47
2023-05-02T02:12:17.287Z,100484.75
2023-05-02T02:13:35.695Z,100479.19
2023-05-02T02:14:40.522Z,100483.00
2023-05-02T02:15:47.072Z,100484.84
2023-05-02T02:16:53.445Z,100485.09
2023-05-02T02:18:09.785Z,100493.06
2023-05-02T02:19:15.386Z,100482.22
2023-05-02T02:20:19.405Z,100491.72
2023-05-02T02:21:26.780Z,100490.84
2023-05-02T02:22:30.598Z,100487.56
2023-05-02T02:23:34.721Z,100487.84
2023-05-02T02:24:39.573Z,100492.66
2023-05-02T02:25:43.935Z,100491.00
2023-05-02T02:26:46.511Z,100495.09
2023-05-02T02:27:49.141Z,100496.28
2023-05-02T02:28:51.317Z,100492.16
2023-05-02T02:29:53.756Z,100500.81
2023-05-02T02:30:56.691Z,100497.06
2023-05-02T02:31:59.118Z,100495.94
2023-05-02T02:33:01.380Z,100499.03
2023-05-02T02:34:03.819Z,100497.00
2023-05-02T02:35:07.092Z,100500.19
2023-05-02T02:36:24.724Z,100509.84
2023-05-02T02:37:33.102Z,100512.38
2023-05-02T02:39:10.574Z,100509.47
2023-05-02T02:40:23.879Z,100503.72
2023-05-02T02:41:32.067Z,100502.00
2023-05-02T02:43:00.204Z,100503.13
2023-05-02T02:44:37.276Z,100515.53
2023-05-02T02:46:25.414Z,100508.41
2023-05-02T02:47:36.562Z,100512.75
2023-05-02T02:48:48.830Z,100512.13
2023-05-02T02:50:16.722Z,100513.16
2023-05-02T02:51:50.831Z,100512.63
2023-05-02T02:53:18.547Z,100515.06
2023-05-02T02:54:33.943Z,100518.47
2023-05-02T02:55:44.875Z,100513.31
2023-05-02T02:56:48.948Z,100522.88
2023-05-02T02:58:29.397Z,100528.66
2023-05-02T02:59:38.899Z,100533.91
2023-05-02T03:00:41.682Z,100533.03
2023-05-02T03:01:49.608Z,100528.06
2023-05-02T03:02:53.876Z,100530.34
2023-05-02T03:03:57.526Z,100528.34
2023-05-02T03:05:02.495Z,100526.38
2023-05-02T03:06:05.736Z,100531.03
2023-05-02T03:07:08.302Z,100522.09
2023-05-02T03:08:10.743Z,100521.50
2023-05-02T03:09:20.093Z,100522.84
2023-05-02T03:10:24.523Z,100523.72
2023-05-02T03:11:28.988Z,100531.09
2023-05-02T03:12:32.924Z,100529.31
2023-05-02T03:13:36.106Z,100534.09
2023-05-02T03:14:39.448Z,100531.88
2023-05-02T03:16:08.563Z,100535.75
2023-05-02T03:17:11.449Z,100531.22
2023-05-02T03:18:13.656Z,100539.47
2023-05-02T03:19:16.362Z,100540.47
2023-05-02T03:20:18.572Z,100540.34
2023-05-02T03:21:21.281Z,100539.63
2023-05-02T03:22:24.168Z,100543.03
2023-05-02T03:23:27.203Z,100540.47
2023-05-02T03:24:31.402Z,100548.22
2023-05-02T03:25:33.876Z,100532.09
2023-05-02T03:26:36.163Z,100542.25
2023-05-02T03:27:39.775Z,100542.25
2023-05-02T03:28:47.920Z,100536.13
2023-05-02T03:29:55.369Z,100538.44
2023-05-02T03:30:58.145Z,100535.03
2023-05-02T03:32:00.638Z,100545.00
2023-05-02T03:33:05.106Z,100546.09
2023-05-02T03:34:07.688Z,100554.66
2023-05-02T03:35:11.551Z,100551.16
2023-05-02T03:36:18.358Z,100558.13
2023-05-02T03:37:20.826Z,100554.50
2023-05-02T03:38:23.160Z,100556.41
2023-05-02T03:39:26.274Z,100554.72
2023-05-02T03:40:28.422Z,100558.44
2023-05-02T03:41:32.194Z,100556.47
2023-05-02T03:42:41.441Z,100549.44
2023-05-02T03:43:54.888Z,100560.59
2023-05-02T03:44:58.986Z,100562.50
2023-05-02T03:46:11.493Z,100557.84
2023-05-02T03:47:17.209Z,100566.19
2023-05-02T03:48:20.277Z,100570.09
2023-05-02T03:49:22.864Z,100558.59
2023-05-02T03:50:28.044Z,100567.47
2023-05-02T03:51:32.015Z,100576.63
2023-05-02T03:52:34.483Z,100578.47
2023-05-02T03:53:37.370Z,100576.94
2023-05-02T03:54:39.599Z,100585.94
2023-05-02T03:55:43.505Z,100581.59
2023-05-02T03:56:54.737Z,100579.41
2023-05-02T03:58:03.011Z,100589.34
2023-05-02T03:59:05.791Z,100582.16
2023-05-02T04:00:08.966Z,100578.34
2023-05-02T04:01:16.052Z,100580.56
2023-05-02T04:02:20.998Z,100583.31
2023-05-02T04:03:24.649Z,100580.63
2023-05-02T04:04:27.378Z,100585.22
2023-05-02T04:05:30.558Z,100585.22
2023-05-02T04:06:33.185Z,100583.75
2023-05-02T04:07:39.328Z,100587.38
2023-05-02T04:08:43.599Z,100588.44
2023-05-02T04:09:46.069Z,100589.22
2023-05-02T04:10:52.965Z,100584.47
2023-05-02T04:11:55.174Z,100587.41
2023-05-02T04:12:58.414Z,100593.88
2023-05-02T04:14:01.583Z,100590.50
2023-05-02T04:15:04.454Z,100595.16
2023-05-02T04:16:09.358Z,100603.28
2023-05-02T04:17:15.652Z,100599.72
2023-05-02T04:18:21.531Z,100610.91
2023-05-02T04:19:24.306Z,100607.88
2023-05-02T04:20:26.632Z,100612.97
2023-05-02T04:21:30.287Z,100611.31
2023-05-02T04:22:33.347Z,100614.94
2023-05-02T04:23:39.466Z,100621.56
2023-05-02T04:24:42.167Z,100608.94
2023-05-02T04:25:57.108Z,100619.81
2023-05-02T04:27:07.903Z,100618.06
2023-05-02T04:28:11.284Z,100624.09
2023-05-02T04:29:13.707Z,100631.50
2023-05-02T04:30:17.101Z,100631.06
2023-05-02T04:31:29.513Z,100629.50
2023-05-02T04:32:32.052Z,100631.41
2023-05-02T04:33:35.613Z,100635.03
2023-05-02T04:34:38.371Z,100634.94
2023-05-02T04:35:41.598Z,100636.53
2023-05-02T04:36:47.167Z,100633.84
2023-05-02T04:37:54.951Z,100640.47
2023-05-02T04:38:57.662Z,100649.56
2023-05-02T04:40:00.872Z,100644.28
2023-05-02T04:41:08.726Z,100636.59
2023-05-02T04:42:17.442Z,100644.47
2023-05-02T04:43:30.118Z,100646.91
2023-05-02T04:44:36.401Z,100647.22
2023-05-02T04:45:38.791Z,100653.63
2023-05-02T04:46:46.380Z,100652.84
2023-05-02T04:47:48.923Z,100660.75
2023-05-02T04:48:51.778Z,100653.63
2023-05-02T04:49:55.207Z,100654.41
2023-05-02T04:50:57.629Z,100655.13
2023-05-02T04:51:59.883Z,100662.50
2023-05-02T04:53:02.578Z,100660.34
2023-05-02T04:54:05.625Z,100661.00
2023-05-02T04:55:08.228Z,100667.31
2023-05-02T04:56:12.018Z,100663.03
2023-05-02T04:57:14.647Z,100668.81
2023-05-02T04:58:21.497Z,100675.31
2023-05-02T04:59:31.476Z,100669.38
2023-05-02T05:00:35.369Z,100684.00
2023-05-02T05:01:39.834Z,100676.22
2023-05-02T05:02:43.891Z,100674.84
2023-05-02T05:03:49.037Z,100677.34
2023-05-02T05:04:53.125Z,100680.56
2023-05-02T05:05:55.495Z,100671.41
2023-05-02T05:06:59.675Z,100681.13
2023-05-02T05:08:03.781Z,100686.63
2023-05-02T05:09:09.556Z,100688.09
2023-05-02T05:10:12.616Z,100687.97
2023-05-02T05:11:20.885Z,100690.84
2023-05-02T05:12:23.391Z,100684.75
2023-05-02T05:13:26.066Z,100684.50
2023-05-02T05:14:28.987Z,100688.78
2023-05-02T05:15:32.936Z,100695.38
2023-05-02T05:16:37.520Z,100689.94
2023-05-02T05:17:40.642Z,100691.59
2023-05-02T05:18:43.222Z,100695.31
2023-05-02T05:19:48.017Z,100697.75
2023-05-02T05:20:50.560Z,100698.78
2023-05-02T05:21:53.261Z,100696.59
2023-05-02T05:22:57.127Z,100697.31
2023-05-02T05:24:01.151Z,100704.44
2023-05-02T05:25:05.076Z,100700.97
2023-05-02T05:26:18.159Z,100700.16
2023-05-02T05:27:23.439Z,100693.25
2023-05-02T05:28:27.202Z,100703.50
2023-05-02T05:29:32.789Z,100705.66
2023-05-02T05:30:35.664Z,100705.34
2023-05-02T05:31:41.968Z,100711.00
2023-05-02T05:32:46.002Z,100718.22
2023-05-02T05:33:48.301Z,100717.78
2023-05-02T05:34:54.199Z,100726.16
2023-05-02T05:36:04.636Z,100733.69
2023-05-02T05:37:07.146Z,100733.63
2023-05-02T05:38:09.699Z,100729.13
2023-05-02T05:39:14.148Z,100734.13
2023-05-02T05:40:18.640Z,100734.34
2023-05-02T05:41:28.907Z,100735.16
2023-05-02T05:42:36.960Z,100735.94
2023-05-02T05:43:44.210Z,100737.59
2023-05-02T05:44:46.644Z,100745.25
2023-05-02T05:45:53.454Z,100749.28
2023-05-02T05:46:56.398Z,100746.59
2023-05-02T05:48:00.858Z,100741.91
2023-05-02T05:49:06.617Z,100746.34
2023-05-02T05:50:11.179Z,100744.81
2023-05-02T05:51:14.111Z,100750.59
2023-05-02T05:52:16.571Z,100752.81
2023-05-02T05:53:19.719Z,100755.66
2023-05-02T05:54:24.557Z,100759.75
2023-05-02T05:55:28.509Z,100762.25
2023-05-02T05:56:30.682Z,100765.09
2023-05-02T05:57:40.769Z,100761.81
2023-05-02T05:58:44.773Z,100761.25
2023-05-02T05:59:49.314Z,100769.03
2023-05-02T06:00:52.582Z,100775.19
2023-05-02T06:01:55.014Z,100776.59
2023-05-02T06:02:58.685Z,100782.31
2023-05-02T06:04:05.103Z,100784.28
2023-05-02T06:05:10.186Z,100792.25
2023-05-02T06:06:12.701Z,100781.59
2023-05-02T06:07:14.992Z,100780.63
2023-05-02T06:08:17.185Z,100788.81
2023-05-02T06:09:19.420Z,100794.03
2023-05-02T06:10:21.639Z,100788.63
2023-05-02T06:11:26.994Z,100792.53
2023-05-02T06:12:29.617Z,100781.28
2023-05-02T06:13:32.019Z,100789.75
2023-05-02T06:14:34.268Z,100791.66
2023-05-02T06:15:36.485Z,100784.63
2023-05-02T06:16:40.840Z,100791.06
2023-05-02T06:17:43.662Z,100795.13
2023-05-02T06:18:46.971Z,100797.44
2023-05-02T06:19:49.512Z,100797.59
2023-05-02T06:20:51.947Z,100804.91
2023-05-02T06:21:54.352Z,100799.19
2023-05-02T06:22:57.737Z,100800.41
2023-05-02T06:24:00.162Z,100802.69
2023-05-02T06:25:02.391Z,100807.75
2023-05-02T06:26:05.559Z,100799.16
2023-05-02T06:27:07.797Z,100798.69
2023-05-02T06:28:10.193Z,100798.88
2023-05-02T06:29:12.414Z,100804.00
2023-05-02T06:30:14.675Z,100808.09
2023-05-02T06:31:17.099Z,100812.53
2023-05-02T06:32:19.795Z,100814.28
2023-05-02T06:33:22.066Z,100808.34
2023-05-02T06:34:24.272Z,100823.00
2023-05-02T06:35:26.832Z,100822.47
2023-05-02T06:36:29.252Z,100819.59
2023-05-02T06:37:37.905Z,100824.56
2023-05-02T06:38:40.383Z,100824.09
2023-05-02T06:39:42.874Z,100829.09
2023-05-02T06:40:45.605Z,100824.00
2023-05-02T06:41:48.742Z,100827.13
2023-05-02T06:42:52.930Z,100830.00
2023-05-02T06:43:55.865Z,100828.28
2023-05-02T06:44:58.055Z,100831.25
2023-05-02T06:46:01.216Z,100836.66
2023-05-02T06:47:05.161Z,100837.63
2023-05-02T06:48:08.111Z,100837.84
2023-05-02T06:49:10.845Z,100829.09
2023-05-02T06:50:13.266Z,100832.47
2023-05-02T06:51:15.901Z,100836.44
2023-05-02T06:52:18.082Z,100837.94
2023-05-02T06:53:20.808Z,100842.25
2023-05-02T06:54:22.976Z,100839.09
2023-05-02T06:55:25.764Z,100833.28
2023-05-02T06:56:27.945Z,100840.19
2023-05-02T06:57:30.370Z,100842.59
2023-05-02T06:58:32.665Z,100837.16
2023-05-02T06:59:35.164Z,100841.94
2023-05-02T07:00:37.399Z,100841.72
2023-05-02T07:01:39.852Z,100849.22
2023-05-02T07:02:42.393Z,100850.03
2023-05-02T07:03:46.885Z,100855.72
2023-05-02T07:04:49.160Z,100848.84
2023-05-02T07:05:51.719Z,100852.56
2023-05-02T07:06:54.025Z,100865.53
2023-05-02T07:07:56.252Z,100865.41
2023-05-02T07:08:58.658Z,100857.91
2023-05-02T07:10:01.137Z,100866.31
2023-05-02T07:11:03.715Z,100867.53
2023-05-02T07:12:07.077Z,100876.16
2023-05-02T07:13:09.456Z,100873.13
2023-05-02T07:14:11.862Z,100872.59
2023-05-02T07:15:14.361Z,100875.91
2023-05-02T07:16:16.759Z,100873.13
2023-05-02T07:17:19.673Z,100871.06
2023-05-02T07:18:21.994Z,100877.66
2023-05-02T07:19:25.096Z,100882.78
2023-05-02T07:20:27.545Z,100883.59
2023-05-02T07:21:29.849Z,100896.19
2023-05-02T07:22:32.178Z,100895.84
2023-05-02T07:23:34.583Z,100901.09
2023-05-02T07:24:41.623Z,100899.31
2023-05-02T07:25:44.049Z,100900.56
2023-05-02T07:26:46.268Z,100894.44
2023-05-02T07:27:48.948Z,100893.81
2023-05-02T07:28:51.356Z,100897.72
2023-05-02T07:29:53.693Z,100896.00
2023-05-02T07:30:55.973Z,100905.47
2023-05-02T07:31:58.464Z,100898.28
2023-05-02T07:33:01.252Z,100909.66
2023-05-02T07:34:03.528Z,100906.81
2023-05-02T07:35:06.902Z,100911.88
2023-05-02T07:36:09.339Z,100918.00
2023-05-02T07:37:12.077Z,100918.97
2023-05-02T07:38:14.377Z,100920.25
2023-05-02T07:39:16.573Z,100922.97
2023-05-02T07:40:18.876Z,100921.94
2023-05-02T07:41:21.365Z,100922.88
2023-05-02T07:42:29.136Z,100931.41
2023-05-02T07:43:31.551Z,100940.66
2023-05-02T07:44:36.035Z,100935.69
2023-05-02T07:45:38.304Z,100940.66
2023-05-02T07:46:41.283Z,100944.94
2023-05-02T07:47:43.812Z,100945.84
2023-05-02T07:48:46.114Z,100949.97
2023-05-02T07:49:52.379Z,100947.50
2023-05-02T07:50:54.598Z,100951.50
2023-05-02T07:51:58.072Z,100952.19
2023-05-02T07:53:00.637Z,100962.78
2023-05-02T07:54:02.813Z,100958.38
2023-05-02T07:55:05.578Z,100965.50
2023-05-02T07:56:08.927Z,100959.72
2023-05-02T07:57:12.925Z,100962.16
2023-05-02T07:58:15.509Z,100968.81
2023-05-02T07:59:17.791Z,100959.44
2023-05-02T08:00:20.327Z,100957.94
2023-05-02T08:01:22.958Z,100966.66
2023-05-02T08:02:26.231Z,100973.03
2023-05-02T08:03:29.609Z,100974.44
2023-05-02T08:04:32.048Z,100971.31
2023-05-02T08:05:34.322Z,100978.06
2023-05-02T08:06:37.293Z,100978.28
2023-05-02T08:07:39.860Z,100974.38
2023-05-02T08:08:42.590Z,100982.03
2023-05-02T08:09:44.871Z,100987.13
2023-05-02T08:10:47.152Z,100993.72
2023-05-02T08:11:49.855Z,100992.91
2023-05-02T08:12:52.160Z,100990.41
2023-05-02T08:13:55.263Z,100993.34
2023-05-02T08:14:57.793Z,100995.06
2023-05-02T08:16:00.126Z,100997.78
2023-05-02T08:17:02.427Z,100996.41
2023-05-02T08:18:04.906Z,100992.38
2023-05-02T08:19:07.239Z,100991.31
2023-05-02T08:20:09.792Z,100997.84
2023-05-02T08:21:12.408Z,100993.31
2023-05-02T08:22:14.711Z,100987.75
2023-05-02T08:23:17.051Z,100988.09
2023-05-02T08:24:19.857Z,100997.59
2023-05-02T08:25:22.177Z,101003.16
2023-05-02T08:26:24.956Z,101005.22
2023-05-02T08:27:27.550Z,101003.09
2023-05-02T08:28:30.597Z,101000.88
2023-05-02T08:29:33.625Z,100993.28
2023-05-02T08:30:35.932Z,101005.38
2023-05-02T08:31:40.218Z,101005.09
2023-05-02T08:32:42.720Z,101009.63
2023-05-02T08:33:45.810Z,101009.69
2023-05-02T08:34:48.461Z,101013.78
2023-05-02T08:35:50.920Z,101016.88
2023-05-02T08:36:53.103Z,101020.41
2023-05-02T08:37:55.934Z,101020.00
2023-05-02T08:38:58.317Z,101023.06
2023-05-02T08:40:01.120Z,101027.72
2023-05-02T08:41:04.007Z,101023.38
2023-05-02T08:42:10.162Z,101026.22
2023-05-02T08:43:13.534Z,101021.13
2023-05-02T08:44:15.965Z,101028.72
2023-05-02T08:45:20.892Z,101030.22
2023-05-02T08:46:24.172Z,101026.34
2023-05-02T08:47:27.813Z,101027.91
2023-05-02T08:48:31.780Z,101026.19
2023-05-02T08:49:35.914Z,101035.00
2023-05-02T08:50:46.697Z,101027.72
2023-05-02T08:51:52.118Z,101034.06
2023-05-02T08:52:55.807Z,101030.44
2023-05-02T08:53:58.731Z,101035.16
2023-05-02T08:55:03.671Z,101029.81
2023-05-02T08:56:07.833Z,101033.41
2023-05-02T08:57:10.688Z,101040.03
2023-05-02T08:58:14.101Z,101043.19
2023-05-02T08:59:17.942Z,101038.66
2023-05-02T09:00:20.323Z,101041.41
2023-05-02T09:01:30.491Z,101040.16
2023-05-02T09:02:37.526Z,101044.00
2023-05-02T09:03:42.814Z,101043.31
2023-05-02T09:04:53.398Z,101042.50
2023-05-02T09:06:12.962Z,101039.53
2023-05-02T09:07:15.489Z,101045.91
2023-05-02T09:08:24.917Z,101042.94
2023-05-02T09:09:27.568Z,101047.88
2023-05-02T09:10:31.507Z,101047.78
2023-05-02T09:11:33.692Z,101036.75
2023-05-02T09:12:36.118Z,101043.00
2023-05-02T09:13:39.521Z,101052.34
2023-05-02T09:14:44.822Z,101045.78
2023-05-02T09:16:11.478Z,101049.25
2023-05-02T09:17:14.133Z,101048.25
2023-05-02T09:18:23.399Z,101047.13
2023-05-02T09:19:26.665Z,101046.19
2023-05-02T09:20:29.542Z,101053.41
2023-05-02T09:21:41.623Z,101047.44
2023-05-02T09:22:51.503Z,101053.97
2023-05-02T09:23:55.954Z,101045.50
2023-05-02T09:24:58.532Z,101050.91
2023-05-02T09:26:01.416Z,101049.31
2023-05-02T09:27:05.149Z,101050.03
2023-05-02T09:28:07.472Z,101053.75
2023-05-02T09:29:09.690Z,101058.59
2023-05-02T09:30:28.314Z,101056.28
2023-05-02T09:32:47.693Z,101064.41
2023-05-02T09:33:50.213Z,101053.47
2023-05-02T09:35:06.266Z,101059.06
2023-05-02T09:36:11.208Z,101057.66
2023-05-02T09:37:36.276Z,101049.81
2023-05-02T09:38:38.925Z,101061.56
2023-05-02T09:39:41.152Z,101060.22
2023-05-02T09:40:55.677Z,101066.47
2023-05-02T09:41:59.052Z,101058.97
2023-05-02T09:43:15.916Z,101060.78
2023-05-02T09:44:23.773Z,101066.56
2023-05-02T09:45:26.777Z,101062.91
2023-05-02T09:46:40.743Z,101067.69
2023-05-02T09:47:44.324Z,101065.34
2023-05-02T09:48:56.547Z,101063.84
2023-05-02T09:49:59.145Z,101067.97
2023-05-02T09:51:01.777Z,101064.19
2023-05-02T09:52:17.914Z,101070.31
2023-05-02T09:53:20.548Z,101072.94
2023-05-02T09:54:38.508Z,101071.81
2023-05-02T09:55:40.945Z,101090.00
2023-05-02T09:56:57.114Z,101079.53
2023-05-02T09:58:00.357Z,101081.72
2023-05-02T09:59:16.188Z,101073.16
2023-05-02T10:00:19.840Z,101082.59
2023-05-02T10:01:22.678Z,101085.81
2023-05-02T10:02:25.792Z,101090.81
2023-05-02T10:03:29.975Z,101086.53
2023-05-02T10:04:33.950Z,101093.34
2023-05-02T10:05:39.073Z,101094.22
2023-05-02T10:06:41.637Z,101096.28
2023-05-02T10:07:46.161Z,101098.19
2023-05-02T10:08:49.173Z,101094.75
2023-05-02T10:09:55.742Z,101099.44
2023-05-02T10:10:59.410Z,101091.56
2023-05-02T10:12:08.279Z,101103.47
2023-05-02T10:13:13.769Z,101097.88
2023-05-02T10:14:19.697Z,101102.69
2023-05-02T10:15:23.481Z,101100.31
2023-05-02T10:16:30.131Z,101102.47
2023-05-02T10:19:03.573Z,101103.78
2023-05-02T10:20:07.688Z,101103.75
2023-05-02T10:21:17.504Z,101113.50
2023-05-02T10:22:20.185Z,101108.47
2023-05-02T10:23:26.647Z,101112.38
2023-05-02T10:24:30.625Z,101115.28
2023-05-02T10:25:33.350Z,101111.41
2023-05-02T10:26:36.491Z,101114.53
2023-05-02T10:27:38.879Z,101108.09
2023-05-02T10:28:42.668Z,101118.16
2023-05-02T10:29:46.030Z,101117.28
2023-05-02T10:30:51.082Z,101114.13
2023-05-02T10:31:53.531Z,101115.13
2023-05-02T10:32:59.855Z,101114.31
2023-05-02T10:34:04.661Z,101124.44
2023-05-02T10:35:08.461Z,101116.66
2023-05-02T10:36:14.429Z,101122.13
2023-05-02T10:37:17.566Z,101118.63
2023-05-02T10:38:23.359Z,101123.97
2023-05-02T10:39:27.396Z,101118.41
2023-05-02T10:40:31.184Z,101117.81
2023-05-02T10:41:34.770Z,101124.97
2023-05-02T10:42:41.095Z,101120.97
2023-05-02T10:43:47.596Z,101124.53
2023-05-02T10:44:51.198Z,101122.22
2023-05-02T10:45:55.160Z,101125.31
2023-05-02T10:46:58.771Z,101127.44
2023-05-02T10:48:22.310Z,101130.13
2023-05-02T10:49:27.233Z,101131.44
2023-05-02T10:50:47.607Z,101138.50
2023-05-02T10:51:49.901Z,101143.69
2023-05-02T10:52:52.379Z,101140.25
2023-05-02T10:53:55.087Z,101136.81
2023-05-02T10:55:16.975Z,101152.03
2023-05-02T10:56:22.813Z,101148.84
2023-05-02T10:57:25.049Z,101146.19
2023-05-02T10:58:27.493Z,101155.31
2023-05-02T10:59:40.522Z,101151.59
2023-05-02T11:00:42.904Z,101159.22
2023-05-02T11:01:45.396Z,101154.13
2023-05-02T11:02:48.939Z,101156.03
2023-05-02T11:03:54.755Z,101157.94
2023-05-02T11:05:05.235Z,101152.22
2023-05-02T11:06:08.061Z,101152.53
2023-05-02T11:07:10.433Z,101155.00
2023-05-02T11:08:15.767Z,101154.81
2023-05-02T11:09:18.827Z,101160.31
2023-05-02T11:10:21.046Z,101149.75
2023-05-02T11:11:38.308Z,101156.88
2023-05-02T11:12:49.470Z,101153.88
2023-05-02T11:13:51.789Z,101158.19
2023-05-02T11:14:54.082Z,101162.00
2023-05-02T11:15:56.588Z,101151.75
2023-05-02T11:16:59.607Z,101158.75
2023-05-02T11:18:15.377Z,101162.63
2023-05-02T11:19:17.778Z,101155.97
2023-05-02T11:20:20.615Z,101154.31
2023-05-02T11:21:28.989Z,101157.16
2023-05-02T11:22:32.274Z,101154.03
2023-05-02T11:23:36.970Z,101155.38
2023-05-02T11:24:44.878Z,101156.31
2023-05-02T11:25:48.681Z,101151.91
2023-05-02T11:26:51.208Z,101157.31
2023-05-02T11:27:53.630Z,101159.22
2023-05-02T11:28:55.815Z,101149.81
2023-05-02T11:30:05.038Z,101158.19
2023-05-02T11:31:09.621Z,101154.19
2023-05-02T11:32:12.100Z,101161.31
2023-05-02T11:33:17.355Z,101166.22
2023-05-02T11:34:20.178Z,101158.94
2023-05-02T11:35:27.439Z,101159.72
2023-05-02T11:36:35.852Z,101159.19
2023-05-02T11:37:38.177Z,101159.13
2023-05-02T11:38:40.416Z,101166.19
2023-05-02T11:39:43.123Z,101163.03
2023-05-02T11:40:56.796Z,101157.91
2023-05-02T11:41:59.107Z,101170.84
2023-05-02T11:43:11.714Z,101168.75
2023-05-02T11:44:14.139Z,101170.50
2023-05-02T11:45:17.064Z,101178.69
2023-05-02T11:46:29.270Z,101169.50
2023-05-02T11:47:33.194Z,101164.75
2023-05-02T11:48:36.092Z,101174.56
2023-05-02T11:49:38.371Z,101179.34
2023-05-02T11:50:52.623Z,101171.19
2023-05-02T11:51:54.972Z,101172.06
2023-05-02T11:52:57.456Z,101172.28
2023-05-02T11:53:59.704Z,101173.53
2023-05-02T11:55:02.406Z,101177.66
2023-05-02T11:56:05.421Z,101162.91
2023-05-02T11:57:07.954Z,101173.72
2023-05-02T11:58:14.453Z,101177.03
2023-05-02T11:59:16.895Z,101173.00
2023-05-02T12:00:19.737Z,101168.69
2023-05-02T12:01:22.000Z,101177.97
2023-05-02T12:02:41.387Z,101171.50
2023-05-02T12:03:44.134Z,101162.41
2023-05-02T12:04:46.919Z,101163.91
2023-05-02T12:05:49.856Z,101149.50
2023-05-02T12:06:56.965Z,101164.16
2023-05-02T12:08:01.226Z,101162.97
2023-05-02T12:09:08.886Z,101160.94
2023-05-02T12:10:13.123Z,101161.81
2023-05-02T12:11:16.796Z,101163.31
2023-05-02T12:12:22.468Z,101164.00
2023-05-02T12:13:26.552Z,101162.53
2023-05-02T12:14:33.626Z,101163.75
2023-05-02T12:15:36.825Z,101163.38
2023-05-02T12:16:39.107Z,101161.63
2023-05-02T12:17:44.119Z,101162.41
2023-05-02T12:18:48.114Z,101167.03
2023-05-02T12:19:50.810Z,101167.75
2023-05-02T12:20:55.136Z,101165.22
2023-05-02T12:21:58.178Z,101167.13
2023-05-02T12:23:00.871Z,101170.84
2023-05-02T12:24:03.672Z,101175.16
2023-05-02T12:25:06.884Z,101171.06
2023-05-02T12:26:25.352Z,101175.34
2023-05-02T12:27:28.066Z,101173.41